sensor_id;sensor_type;location;lat;lon;timestamp;P1;durP1;ratioP1;P2;durP2;ratioP2
826;SDS011;395;48.132;11.608;2022-12-18T00:00:46;34.05;;;17.90;;
826;SDS011;395;48.132;11.608;2022-12-18T00:03:12;38.30;;;18.85;;
826;SDS011;395;48.132;11.608;2022-12-18T00:05:50;42.33;;;20.05;;
826;SDS011;395;48.132;11.608;2022-12-18T00:08:17;40.22;;;19.85;;
826;SDS011;395;48.132;11.608;2022-12-18T00:10:44;37.75;;;20.33;;
826;SDS011;395;48.132;11.608;2022-12-18T00:13:10;38.92;;;20.63;;
826;SDS011;395;48.132;11.608;2022-12-18T00:15:37;42.05;;;21.33;;
826;SDS011;395;48.132;11.608;2022-12-18T00:18:04;40.05;;;20.05;;
826;SDS011;395;48.132;11.608;2022-12-18T00:20:31;45.60;;;21.67;;
826;SDS011;395;48.132;11.608;2022-12-18T00:23:00;37.85;;;20.77;;
826;SDS011;395;48.132;11.608;2022-12-18T00:25:26;45.27;;;21.20;;
826;SDS011;395;48.132;11.608;2022-12-18T00:27:51;36.27;;;18.77;;
826;SDS011;395;48.132;11.608;2022-12-18T00:30:17;38.00;;;19.27;;
826;SDS011;395;48.132;11.608;2022-12-18T00:32:43;35.17;;;20.40;;
826;SDS011;395;48.132;11.608;2022-12-18T00:35:09;39.70;;;20.13;;
826;SDS011;395;48.132;11.608;2022-12-18T00:37:34;42.60;;;20.37;;
826;SDS011;395;48.132;11.608;2022-12-18T00:40:00;41.90;;;20.30;;
826;SDS011;395;48.132;11.608;2022-12-18T00:42:26;37.05;;;18.48;;
826;SDS011;395;48.132;11.608;2022-12-18T00:45:10;40.17;;;18.27;;
826;SDS011;395;48.132;11.608;2022-12-18T00:47:36;36.47;;;19.87;;
826;SDS011;395;48.132;11.608;2022-12-18T00:50:02;33.27;;;17.80;;
826;SDS011;395;48.132;11.608;2022-12-18T00:52:28;40.67;;;18.20;;
826;SDS011;395;48.132;11.608;2022-12-18T00:54:53;34.70;;;17.40;;
826;SDS011;395;48.132;11.608;2022-12-18T00:57:19;38.50;;;17.93;;
826;SDS011;395;48.132;11.608;2022-12-18T00:59:44;38.60;;;19.30;;
826;SDS011;395;48.132;11.608;2022-12-18T01:02:10;40.13;;;17.50;;
826;SDS011;395;48.132;11.608;2022-12-18T01:04:36;39.93;;;19.20;;
826;SDS011;395;48.132;11.608;2022-12-18T01:07:01;37.57;;;18.60;;
826;SDS011;395;48.132;11.608;2022-12-18T01:09:27;33.03;;;18.77;;
826;SDS011;395;48.132;11.608;2022-12-18T01:11:53;35.00;;;18.23;;
826;SDS011;395;48.132;11.608;2022-12-18T01:14:18;40.67;;;18.47;;
826;SDS011;395;48.132;11.608;2022-12-18T01:16:44;37.30;;;19.23;;
826;SDS011;395;48.132;11.608;2022-12-18T01:19:09;37.47;;;18.97;;
826;SDS011;395;48.132;11.608;2022-12-18T01:21:35;35.60;;;17.77;;
826;SDS011;395;48.132;11.608;2022-12-18T01:24:01;33.93;;;18.30;;
826;SDS011;395;48.132;11.608;2022-12-18T01:26:26;36.53;;;19.30;;
826;SDS011;395;48.132;11.608;2022-12-18T01:28:55;39.65;;;19.13;;
826;SDS011;395;48.132;11.608;2022-12-18T01:33:55;35.83;;;18.10;;
826;SDS011;395;48.132;11.608;2022-12-18T01:36:22;38.72;;;18.42;;
826;SDS011;395;48.132;11.608;2022-12-18T01:38:49;37.42;;;18.17;;
826;SDS011;395;48.132;11.608;2022-12-18T01:41:16;39.75;;;19.50;;
826;SDS011;395;48.132;11.608;2022-12-18T01:43:48;37.60;;;19.13;;
826;SDS011;395;48.132;11.608;2022-12-18T01:46:18;42.92;;;20.17;;
826;SDS011;395;48.132;11.608;2022-12-18T01:48:46;42.58;;;20.15;;
826;SDS011;395;48.132;11.608;2022-12-18T01:51:15;37.35;;;18.70;;
826;SDS011;395;48.132;11.608;2022-12-18T01:53:41;39.72;;;19.52;;
826;SDS011;395;48.132;11.608;2022-12-18T01:56:10;42.20;;;21.35;;
826;SDS011;395;48.132;11.608;2022-12-18T01:58:41;44.53;;;20.90;;
826;SDS011;395;48.132;11.608;2022-12-18T02:01:11;38.17;;;19.65;;
826;SDS011;395;48.132;11.608;2022-12-18T02:03:37;43.03;;;22.87;;
826;SDS011;395;48.132;11.608;2022-12-18T02:06:39;39.17;;;19.60;;
826;SDS011;395;48.132;11.608;2022-12-18T02:12:05;39.50;;;19.85;;
826;SDS011;395;48.132;11.608;2022-12-18T02:17:18;46.13;;;21.50;;
826;SDS011;395;48.132;11.608;2022-12-18T02:28:06;46.50;;;22.30;;
826;SDS011;395;48.132;11.608;2022-12-18T02:30:35;48.42;;;22.60;;
826;SDS011;395;48.132;11.608;2022-12-18T02:33:02;47.67;;;23.50;;
826;SDS011;395;48.132;11.608;2022-12-18T02:35:31;44.10;;;22.92;;
826;SDS011;395;48.132;11.608;2022-12-18T02:37:58;49.35;;;22.10;;
826;SDS011;395;48.132;11.608;2022-12-18T02:40:25;43.50;;;21.03;;
826;SDS011;395;48.132;11.608;2022-12-18T02:42:52;40.53;;;21.50;;
826;SDS011;395;48.132;11.608;2022-12-18T02:45:18;45.73;;;23.57;;
826;SDS011;395;48.132;11.608;2022-12-18T02:47:46;46.90;;;20.80;;
826;SDS011;395;48.132;11.608;2022-12-18T03:02:06;44.72;;;21.35;;
826;SDS011;395;48.132;11.608;2022-12-18T03:04:30;38.70;;;20.05;;
826;SDS011;395;48.132;11.608;2022-12-18T03:07:19;44.10;;;21.50;;
826;SDS011;395;48.132;11.608;2022-12-18T03:09:53;45.90;;;21.75;;
826;SDS011;395;48.132;11.608;2022-12-18T03:12:21;45.10;;;21.45;;
826;SDS011;395;48.132;11.608;2022-12-18T03:15:05;38.55;;;19.60;;
826;SDS011;395;48.132;11.608;2022-12-18T03:17:36;41.92;;;20.73;;
826;SDS011;395;48.132;11.608;2022-12-18T03:20:08;39.17;;;21.08;;
826;SDS011;395;48.132;11.608;2022-12-18T03:22:37;42.47;;;21.63;;
826;SDS011;395;48.132;11.608;2022-12-18T03:25:04;43.10;;;22.85;;
826;SDS011;395;48.132;11.608;2022-12-18T03:27:33;44.13;;;21.02;;
826;SDS011;395;48.132;11.608;2022-12-18T03:30:06;42.47;;;21.52;;
826;SDS011;395;48.132;11.608;2022-12-18T03:32:38;40.90;;;22.42;;
826;SDS011;395;48.132;11.608;2022-12-18T03:35:29;36.42;;;19.20;;
826;SDS011;395;48.132;11.608;2022-12-18T03:37:58;38.53;;;21.20;;
826;SDS011;395;48.132;11.608;2022-12-18T03:40:26;43.20;;;21.03;;
826;SDS011;395;48.132;11.608;2022-12-18T03:43:11;41.13;;;21.20;;
826;SDS011;395;48.132;11.608;2022-12-18T03:46:15;46.75;;;22.08;;
826;SDS011;395;48.132;11.608;2022-12-18T03:48:56;45.58;;;21.67;;
826;SDS011;395;48.132;11.608;2022-12-18T03:51:36;41.08;;;21.55;;
826;SDS011;395;48.132;11.608;2022-12-18T03:54:26;40.08;;;19.55;;
826;SDS011;395;48.132;11.608;2022-12-18T03:56:55;47.97;;;21.92;;
826;SDS011;395;48.132;11.608;2022-12-18T03:59:34;42.55;;;20.95;;
826;SDS011;395;48.132;11.608;2022-12-18T04:02:01;48.65;;;23.25;;
826;SDS011;395;48.132;11.608;2022-12-18T04:04:29;42.38;;;20.85;;
826;SDS011;395;48.132;11.608;2022-12-18T04:06:55;39.42;;;20.90;;
826;SDS011;395;48.132;11.608;2022-12-18T04:09:22;41.63;;;19.85;;
826;SDS011;395;48.132;11.608;2022-12-18T04:11:48;41.90;;;19.93;;
826;SDS011;395;48.132;11.608;2022-12-18T04:14:14;44.20;;;21.47;;
826;SDS011;395;48.132;11.608;2022-12-18T04:16:39;40.70;;;20.83;;
826;SDS011;395;48.132;11.608;2022-12-18T04:19:05;40.70;;;19.77;;
826;SDS011;395;48.132;11.608;2022-12-18T04:21:31;42.50;;;20.30;;
826;SDS011;395;48.132;11.608;2022-12-18T04:23:56;41.10;;;21.33;;
826;SDS011;395;48.132;11.608;2022-12-18T04:26:22;40.63;;;19.07;;
826;SDS011;395;48.132;11.608;2022-12-18T04:28:48;35.20;;;19.13;;
826;SDS011;395;48.132;11.608;2022-12-18T04:31:14;42.00;;;21.43;;
826;SDS011;395;48.132;11.608;2022-12-18T04:33:39;33.33;;;18.43;;
826;SDS011;395;48.132;11.608;2022-12-18T04:36:05;32.93;;;18.13;;
826;SDS011;395;48.132;11.608;2022-12-18T04:38:31;34.33;;;19.20;;
826;SDS011;395;48.132;11.608;2022-12-18T04:40:57;40.88;;;21.63;;
826;SDS011;395;48.132;11.608;2022-12-18T04:43:23;39.40;;;19.47;;
826;SDS011;395;48.132;11.608;2022-12-18T04:45:48;38.80;;;18.63;;
826;SDS011;395;48.132;11.608;2022-12-18T04:48:14;37.83;;;17.93;;
826;SDS011;395;48.132;11.608;2022-12-18T04:50:40;35.67;;;18.60;;
826;SDS011;395;48.132;11.608;2022-12-18T04:53:05;41.03;;;19.60;;
826;SDS011;395;48.132;11.608;2022-12-18T04:55:31;38.30;;;19.50;;
826;SDS011;395;48.132;11.608;2022-12-18T04:57:57;37.47;;;19.20;;
826;SDS011;395;48.132;11.608;2022-12-18T05:00:22;34.40;;;18.73;;
826;SDS011;395;48.132;11.608;2022-12-18T05:02:48;37.03;;;17.13;;
826;SDS011;395;48.132;11.608;2022-12-18T05:05:14;37.80;;;19.67;;
826;SDS011;395;48.132;11.608;2022-12-18T05:07:39;33.87;;;18.40;;
826;SDS011;395;48.132;11.608;2022-12-18T05:10:05;43.70;;;21.20;;
826;SDS011;395;48.132;11.608;2022-12-18T05:12:31;36.05;;;20.45;;
826;SDS011;395;48.132;11.608;2022-12-18T05:14:57;37.03;;;17.70;;
826;SDS011;395;48.132;11.608;2022-12-18T05:17:23;35.43;;;18.37;;
826;SDS011;395;48.132;11.608;2022-12-18T05:19:48;33.90;;;17.73;;
826;SDS011;395;48.132;11.608;2022-12-18T05:22:14;32.20;;;16.77;;
826;SDS011;395;48.132;11.608;2022-12-18T05:24:40;36.27;;;19.07;;
826;SDS011;395;48.132;11.608;2022-12-18T05:27:05;34.17;;;18.30;;
826;SDS011;395;48.132;11.608;2022-12-18T05:29:31;35.03;;;18.73;;
826;SDS011;395;48.132;11.608;2022-12-18T05:31:56;37.33;;;19.13;;
826;SDS011;395;48.132;11.608;2022-12-18T05:34:22;32.60;;;17.30;;
826;SDS011;395;48.132;11.608;2022-12-18T05:36:48;36.30;;;18.90;;
826;SDS011;395;48.132;11.608;2022-12-18T05:39:13;34.70;;;18.40;;
826;SDS011;395;48.132;11.608;2022-12-18T05:41:39;33.57;;;17.43;;
826;SDS011;395;48.132;11.608;2022-12-18T05:44:05;36.17;;;19.70;;
826;SDS011;395;48.132;11.608;2022-12-18T05:46:31;37.43;;;18.80;;
826;SDS011;395;48.132;11.608;2022-12-18T05:48:59;39.63;;;18.43;;
826;SDS011;395;48.132;11.608;2022-12-18T05:51:25;38.15;;;19.35;;
826;SDS011;395;48.132;11.608;2022-12-18T05:53:50;36.63;;;17.70;;
826;SDS011;395;48.132;11.608;2022-12-18T05:56:18;33.77;;;17.77;;
826;SDS011;395;48.132;11.608;2022-12-18T05:58:45;30.67;;;17.33;;
826;SDS011;395;48.132;11.608;2022-12-18T06:01:15;34.50;;;17.75;;
826;SDS011;395;48.132;11.608;2022-12-18T06:03:43;36.33;;;16.67;;
826;SDS011;395;48.132;11.608;2022-12-18T06:06:12;35.63;;;16.83;;
826;SDS011;395;48.132;11.608;2022-12-18T06:08:42;28.95;;;16.42;;
826;SDS011;395;48.132;11.608;2022-12-18T06:11:08;31.23;;;16.42;;
826;SDS011;395;48.132;11.608;2022-12-18T06:13:34;31.17;;;15.70;;
826;SDS011;395;48.132;11.608;2022-12-18T06:16:01;32.57;;;17.23;;
826;SDS011;395;48.132;11.608;2022-12-18T06:18:31;28.70;;;16.75;;
826;SDS011;395;48.132;11.608;2022-12-18T06:20:58;36.78;;;16.90;;
826;SDS011;395;48.132;11.608;2022-12-18T06:23:24;31.67;;;15.48;;
826;SDS011;395;48.132;11.608;2022-12-18T06:25:50;27.73;;;15.20;;
826;SDS011;395;48.132;11.608;2022-12-18T06:28:15;29.53;;;16.07;;
826;SDS011;395;48.132;11.608;2022-12-18T06:30:44;33.70;;;17.37;;
826;SDS011;395;48.132;11.608;2022-12-18T06:33:11;34.92;;;18.02;;
826;SDS011;395;48.132;11.608;2022-12-18T06:35:36;32.57;;;15.60;;
826;SDS011;395;48.132;11.608;2022-12-18T06:38:02;28.60;;;16.60;;
826;SDS011;395;48.132;11.608;2022-12-18T06:40:28;30.23;;;16.87;;
826;SDS011;395;48.132;11.608;2022-12-18T06:42:54;32.30;;;16.30;;
826;SDS011;395;48.132;11.608;2022-12-18T06:45:20;29.17;;;16.53;;
826;SDS011;395;48.132;11.608;2022-12-18T06:47:45;29.20;;;16.27;;
826;SDS011;395;48.132;11.608;2022-12-18T06:50:11;30.57;;;17.43;;
826;SDS011;395;48.132;11.608;2022-12-18T06:52:37;31.55;;;16.08;;
826;SDS011;395;48.132;11.608;2022-12-18T06:55:05;34.40;;;18.70;;
826;SDS011;395;48.132;11.608;2022-12-18T06:57:32;34.90;;;17.85;;
826;SDS011;395;48.132;11.608;2022-12-18T06:59:58;35.83;;;17.90;;
826;SDS011;395;48.132;11.608;2022-12-18T07:02:23;35.63;;;18.17;;
826;SDS011;395;48.132;11.608;2022-12-18T07:04:49;34.37;;;18.17;;
826;SDS011;395;48.132;11.608;2022-12-18T07:07:15;32.60;;;18.23;;
826;SDS011;395;48.132;11.608;2022-12-18T07:09:40;35.03;;;18.30;;
826;SDS011;395;48.132;11.608;2022-12-18T07:12:06;31.13;;;15.93;;
826;SDS011;395;48.132;11.608;2022-12-18T07:14:32;36.78;;;16.33;;
826;SDS011;395;48.132;11.608;2022-12-18T07:16:58;30.53;;;15.50;;
826;SDS011;395;48.132;11.608;2022-12-18T07:19:24;32.00;;;17.30;;
826;SDS011;395;48.132;11.608;2022-12-18T07:21:50;29.43;;;17.00;;
826;SDS011;395;48.132;11.608;2022-12-18T07:24:16;34.05;;;15.35;;
826;SDS011;395;48.132;11.608;2022-12-18T07:26:42;33.33;;;16.70;;
826;SDS011;395;48.132;11.608;2022-12-18T07:29:10;29.40;;;17.05;;
826;SDS011;395;48.132;11.608;2022-12-18T07:31:35;27.67;;;15.83;;
826;SDS011;395;48.132;11.608;2022-12-18T07:34:01;31.10;;;15.90;;
826;SDS011;395;48.132;11.608;2022-12-18T07:36:27;28.90;;;16.37;;
826;SDS011;395;48.132;11.608;2022-12-18T07:38:52;28.23;;;15.00;;
826;SDS011;395;48.132;11.608;2022-12-18T07:41:18;35.67;;;15.73;;
826;SDS011;395;48.132;11.608;2022-12-18T07:43:44;25.90;;;14.73;;
826;SDS011;395;48.132;11.608;2022-12-18T07:46:09;27.50;;;14.67;;
826;SDS011;395;48.132;11.608;2022-12-18T07:48:36;36.13;;;16.20;;
826;SDS011;395;48.132;11.608;2022-12-18T07:51:02;30.93;;;15.30;;
826;SDS011;395;48.132;11.608;2022-12-18T07:53:30;31.30;;;15.90;;
826;SDS011;395;48.132;11.608;2022-12-18T07:55:57;29.88;;;15.25;;
826;SDS011;395;48.132;11.608;2022-12-18T07:58:24;28.02;;;16.38;;
826;SDS011;395;48.132;11.608;2022-12-18T08:00:50;29.52;;;15.55;;
826;SDS011;395;48.132;11.608;2022-12-18T08:03:17;28.98;;;15.00;;
826;SDS011;395;48.132;11.608;2022-12-18T08:05:43;27.92;;;15.10;;
826;SDS011;395;48.132;11.608;2022-12-18T08:08:09;29.10;;;15.53;;
826;SDS011;395;48.132;11.608;2022-12-18T08:10:34;27.73;;;16.03;;
826;SDS011;395;48.132;11.608;2022-12-18T08:13:00;27.80;;;14.80;;
826;SDS011;395;48.132;11.608;2022-12-18T08:15:25;31.60;;;15.60;;
826;SDS011;395;48.132;11.608;2022-12-18T08:17:51;29.70;;;15.93;;
826;SDS011;395;48.132;11.608;2022-12-18T08:20:17;29.33;;;16.23;;
826;SDS011;395;48.132;11.608;2022-12-18T08:22:43;28.80;;;15.15;;
826;SDS011;395;48.132;11.608;2022-12-18T08:25:09;29.25;;;16.00;;
826;SDS011;395;48.132;11.608;2022-12-18T08:27:35;25.83;;;14.80;;
826;SDS011;395;48.132;11.608;2022-12-18T08:30:01;29.88;;;15.98;;
826;SDS011;395;48.132;11.608;2022-12-18T08:32:28;30.70;;;15.77;;
826;SDS011;395;48.132;11.608;2022-12-18T08:34:53;28.13;;;14.90;;
826;SDS011;395;48.132;11.608;2022-12-18T08:37:19;28.40;;;14.13;;
826;SDS011;395;48.132;11.608;2022-12-18T08:39:44;25.30;;;14.37;;
826;SDS011;395;48.132;11.608;2022-12-18T08:42:10;25.30;;;13.57;;
826;SDS011;395;48.132;11.608;2022-12-18T08:44:54;33.28;;;16.65;;
826;SDS011;395;48.132;11.608;2022-12-18T08:47:20;26.67;;;15.50;;
826;SDS011;395;48.132;11.608;2022-12-18T08:49:46;26.47;;;13.60;;
826;SDS011;395;48.132;11.608;2022-12-18T08:52:11;27.80;;;13.60;;
826;SDS011;395;48.132;11.608;2022-12-18T08:54:37;27.63;;;14.57;;
826;SDS011;395;48.132;11.608;2022-12-18T08:57:02;26.30;;;13.63;;
826;SDS011;395;48.132;11.608;2022-12-18T08:59:28;21.53;;;12.70;;
826;SDS011;395;48.132;11.608;2022-12-18T09:01:54;26.50;;;14.60;;
826;SDS011;395;48.132;11.608;2022-12-18T09:04:20;28.35;;;14.20;;
826;SDS011;395;48.132;11.608;2022-12-18T09:06:46;24.70;;;13.87;;
826;SDS011;395;48.132;11.608;2022-12-18T09:09:11;23.67;;;13.63;;
826;SDS011;395;48.132;11.608;2022-12-18T09:11:37;27.10;;;14.73;;
826;SDS011;395;48.132;11.608;2022-12-18T09:14:03;25.80;;;15.27;;
826;SDS011;395;48.132;11.608;2022-12-18T09:16:29;25.37;;;14.17;;
826;SDS011;395;48.132;11.608;2022-12-18T09:18:56;20.90;;;11.80;;
826;SDS011;395;48.132;11.608;2022-12-18T09:21:26;23.35;;;12.85;;
826;SDS011;395;48.132;11.608;2022-12-18T09:23:54;27.90;;;13.80;;
826;SDS011;395;48.132;11.608;2022-12-18T09:26:21;25.25;;;14.82;;
826;SDS011;395;48.132;11.608;2022-12-18T09:28:47;22.42;;;12.98;;
826;SDS011;395;48.132;11.608;2022-12-18T09:31:14;24.50;;;14.18;;
826;SDS011;395;48.132;11.608;2022-12-18T09:33:40;25.40;;;13.77;;
826;SDS011;395;48.132;11.608;2022-12-18T09:36:07;25.52;;;13.68;;
826;SDS011;395;48.132;11.608;2022-12-18T09:38:34;23.58;;;13.30;;
826;SDS011;395;48.132;11.608;2022-12-18T09:44:11;25.83;;;14.07;;
826;SDS011;395;48.132;11.608;2022-12-18T09:47:04;26.90;;;13.38;;
826;SDS011;395;48.132;11.608;2022-12-18T09:49:35;28.98;;;15.25;;
826;SDS011;395;48.132;11.608;2022-12-18T09:52:09;25.48;;;14.90;;
826;SDS011;395;48.132;11.608;2022-12-18T09:54:39;25.15;;;13.93;;
826;SDS011;395;48.132;11.608;2022-12-18T09:57:05;30.90;;;14.88;;
826;SDS011;395;48.132;11.608;2022-12-18T09:59:35;26.33;;;14.60;;
826;SDS011;395;48.132;11.608;2022-12-18T10:02:19;25.05;;;13.77;;
826;SDS011;395;48.132;11.608;2022-12-18T10:12:49;25.55;;;13.82;;
826;SDS011;395;48.132;11.608;2022-12-18T10:15:24;29.15;;;15.05;;
826;SDS011;395;48.132;11.608;2022-12-18T10:20:38;22.42;;;13.73;;
826;SDS011;395;48.132;11.608;2022-12-18T10:28:10;26.75;;;13.73;;
826;SDS011;395;48.132;11.608;2022-12-18T10:30:38;24.92;;;13.10;;
826;SDS011;395;48.132;11.608;2022-12-18T10:33:05;22.95;;;13.13;;
826;SDS011;395;48.132;11.608;2022-12-18T10:35:34;23.77;;;13.90;;
826;SDS011;395;48.132;11.608;2022-12-18T10:38:05;27.42;;;13.55;;
826;SDS011;395;48.132;11.608;2022-12-18T10:40:31;25.90;;;13.85;;
826;SDS011;395;48.132;11.608;2022-12-18T10:43:05;27.13;;;14.45;;
826;SDS011;395;48.132;11.608;2022-12-18T10:45:36;28.42;;;14.18;;
826;SDS011;395;48.132;11.608;2022-12-18T10:48:02;22.43;;;13.50;;
826;SDS011;395;48.132;11.608;2022-12-18T10:50:30;19.95;;;12.38;;
826;SDS011;395;48.132;11.608;2022-12-18T10:52:59;21.55;;;13.48;;
826;SDS011;395;48.132;11.608;2022-12-18T10:55:28;23.70;;;13.95;;
826;SDS011;395;48.132;11.608;2022-12-18T11:00:45;23.40;;;14.13;;
826;SDS011;395;48.132;11.608;2022-12-18T11:03:37;30.45;;;13.90;;
826;SDS011;395;48.132;11.608;2022-12-18T11:08:40;24.27;;;13.25;;
826;SDS011;395;48.132;11.608;2022-12-18T11:11:15;25.58;;;13.85;;
826;SDS011;395;48.132;11.608;2022-12-18T11:13:58;23.42;;;12.82;;
826;SDS011;395;48.132;11.608;2022-12-18T11:16:47;27.95;;;13.13;;
826;SDS011;395;48.132;11.608;2022-12-18T11:19:34;21.27;;;12.60;;
826;SDS011;395;48.132;11.608;2022-12-18T11:22:01;23.13;;;13.32;;
826;SDS011;395;48.132;11.608;2022-12-18T11:27:40;23.08;;;14.18;;
826;SDS011;395;48.132;11.608;2022-12-18T11:32:54;21.30;;;13.40;;
826;SDS011;395;48.132;11.608;2022-12-18T11:37:59;24.70;;;14.13;;
826;SDS011;395;48.132;11.608;2022-12-18T11:40:42;23.35;;;13.60;;
826;SDS011;395;48.132;11.608;2022-12-18T11:45:54;24.70;;;13.43;;
826;SDS011;395;48.132;11.608;2022-12-18T11:48:28;22.42;;;13.38;;
826;SDS011;395;48.132;11.608;2022-12-18T11:51:01;25.48;;;13.73;;
826;SDS011;395;48.132;11.608;2022-12-18T11:53:30;24.70;;;13.38;;
826;SDS011;395;48.132;11.608;2022-12-18T11:56:17;26.00;;;14.10;;
826;SDS011;395;48.132;11.608;2022-12-18T11:59:01;23.55;;;14.70;;
826;SDS011;395;48.132;11.608;2022-12-18T12:01:48;23.27;;;13.63;;
826;SDS011;395;48.132;11.608;2022-12-18T12:10:00;22.75;;;13.65;;
826;SDS011;395;48.132;11.608;2022-12-18T12:21:03;23.23;;;13.80;;
826;SDS011;395;48.132;11.608;2022-12-18T12:37:15;27.33;;;12.48;;
826;SDS011;395;48.132;11.608;2022-12-18T12:40:05;23.10;;;13.20;;
826;SDS011;395;48.132;11.608;2022-12-18T12:42:38;21.48;;;13.68;;
826;SDS011;395;48.132;11.608;2022-12-18T12:45:37;24.55;;;13.00;;
826;SDS011;395;48.132;11.608;2022-12-18T12:48:13;21.05;;;12.40;;
826;SDS011;395;48.132;11.608;2022-12-18T12:50:47;22.35;;;11.88;;
826;SDS011;395;48.132;11.608;2022-12-18T12:53:20;25.05;;;13.30;;
826;SDS011;395;48.132;11.608;2022-12-18T12:55:52;18.63;;;12.38;;
826;SDS011;395;48.132;11.608;2022-12-18T12:58:29;20.77;;;13.15;;
826;SDS011;395;48.132;11.608;2022-12-18T13:01:16;23.30;;;14.43;;
826;SDS011;395;48.132;11.608;2022-12-18T13:04:04;25.83;;;14.55;;
826;SDS011;395;48.132;11.608;2022-12-18T13:09:35;22.20;;;12.85;;
826;SDS011;395;48.132;11.608;2022-12-18T13:12:56;23.95;;;12.95;;
826;SDS011;395;48.132;11.608;2022-12-18T13:20:41;25.23;;;13.93;;
826;SDS011;395;48.132;11.608;2022-12-18T13:23:28;21.40;;;13.50;;
826;SDS011;395;48.132;11.608;2022-12-18T13:26:28;25.30;;;13.32;;
826;SDS011;395;48.132;11.608;2022-12-18T13:28:55;26.83;;;14.20;;
826;SDS011;395;48.132;11.608;2022-12-18T13:37:40;24.63;;;15.00;;
826;SDS011;395;48.132;11.608;2022-12-18T13:39:57;26.25;;;14.23;;
826;SDS011;395;48.132;11.608;2022-12-18T13:45:31;26.45;;;14.85;;
826;SDS011;395;48.132;11.608;2022-12-18T13:48:14;22.85;;;13.52;;
826;SDS011;395;48.132;11.608;2022-12-18T13:50:42;27.70;;;15.02;;
826;SDS011;395;48.132;11.608;2022-12-18T13:53:15;26.08;;;14.30;;
826;SDS011;395;48.132;11.608;2022-12-18T13:55:49;25.73;;;13.75;;
826;SDS011;395;48.132;11.608;2022-12-18T13:58:16;25.40;;;15.68;;
826;SDS011;395;48.132;11.608;2022-12-18T14:00:42;24.00;;;14.30;;
826;SDS011;395;48.132;11.608;2022-12-18T14:03:19;29.15;;;15.20;;
826;SDS011;395;48.132;11.608;2022-12-18T14:05:51;23.83;;;13.57;;
826;SDS011;395;48.132;11.608;2022-12-18T14:08:33;25.35;;;14.57;;
826;SDS011;395;48.132;11.608;2022-12-18T14:11:03;27.45;;;14.23;;
826;SDS011;395;48.132;11.608;2022-12-18T14:13:41;25.48;;;13.52;;
826;SDS011;395;48.132;11.608;2022-12-18T14:16:07;25.60;;;14.57;;
826;SDS011;395;48.132;11.608;2022-12-18T14:18:54;23.25;;;13.82;;
826;SDS011;395;48.132;11.608;2022-12-18T14:21:24;26.55;;;14.10;;
826;SDS011;395;48.132;11.608;2022-12-18T14:24:12;22.00;;;12.55;;
826;SDS011;395;48.132;11.608;2022-12-18T14:26:41;25.42;;;13.82;;
826;SDS011;395;48.132;11.608;2022-12-18T14:29:21;28.90;;;14.05;;
826;SDS011;395;48.132;11.608;2022-12-18T14:32:04;22.17;;;13.25;;
826;SDS011;395;48.132;11.608;2022-12-18T14:34:42;23.23;;;13.50;;
826;SDS011;395;48.132;11.608;2022-12-18T14:37:12;23.65;;;13.75;;
826;SDS011;395;48.132;11.608;2022-12-18T14:39:40;22.67;;;13.80;;
826;SDS011;395;48.132;11.608;2022-12-18T14:42:16;24.88;;;13.80;;
826;SDS011;395;48.132;11.608;2022-12-18T14:44:42;24.87;;;13.80;;
826;SDS011;395;48.132;11.608;2022-12-18T14:47:12;23.47;;;13.50;;
826;SDS011;395;48.132;11.608;2022-12-18T14:49:40;24.10;;;12.50;;
826;SDS011;395;48.132;11.608;2022-12-18T14:52:23;26.23;;;15.00;;
826;SDS011;395;48.132;11.608;2022-12-18T14:54:52;23.65;;;14.35;;
826;SDS011;395;48.132;11.608;2022-12-18T14:59:47;24.65;;;13.90;;
826;SDS011;395;48.132;11.608;2022-12-18T15:02:23;24.10;;;13.23;;
826;SDS011;395;48.132;11.608;2022-12-18T15:07:43;27.95;;;14.93;;
826;SDS011;395;48.132;11.608;2022-12-18T15:10:20;28.77;;;15.50;;
826;SDS011;395;48.132;11.608;2022-12-18T15:17:59;23.83;;;13.10;;
826;SDS011;395;48.132;11.608;2022-12-18T15:20:26;25.35;;;14.07;;
826;SDS011;395;48.132;11.608;2022-12-18T15:22:52;30.48;;;14.25;;
826;SDS011;395;48.132;11.608;2022-12-18T15:25:34;24.33;;;15.03;;
826;SDS011;395;48.132;11.608;2022-12-18T15:28:02;26.23;;;13.52;;
826;SDS011;395;48.132;11.608;2022-12-18T15:30:40;25.55;;;13.35;;
826;SDS011;395;48.132;11.608;2022-12-18T15:33:30;24.73;;;13.35;;
826;SDS011;395;48.132;11.608;2022-12-18T15:36:01;25.73;;;14.68;;
826;SDS011;395;48.132;11.608;2022-12-18T15:38:33;24.02;;;13.02;;
826;SDS011;395;48.132;11.608;2022-12-18T15:40:59;28.17;;;14.10;;
826;SDS011;395;48.132;11.608;2022-12-18T15:43:26;24.48;;;13.90;;
826;SDS011;395;48.132;11.608;2022-12-18T15:46:00;24.35;;;13.57;;
826;SDS011;395;48.132;11.608;2022-12-18T15:48:32;22.25;;;13.88;;
826;SDS011;395;48.132;11.608;2022-12-18T15:50:59;25.30;;;14.30;;
826;SDS011;395;48.132;11.608;2022-12-18T15:53:28;24.70;;;13.57;;
826;SDS011;395;48.132;11.608;2022-12-18T15:55:56;24.75;;;13.57;;
826;SDS011;395;48.132;11.608;2022-12-18T15:58:41;27.92;;;14.45;;
826;SDS011;395;48.132;11.608;2022-12-18T16:01:07;22.57;;;13.83;;
826;SDS011;395;48.132;11.608;2022-12-18T16:03:35;26.80;;;14.95;;
826;SDS011;395;48.132;11.608;2022-12-18T16:06:00;28.30;;;14.57;;
826;SDS011;395;48.132;11.608;2022-12-18T16:08:27;28.45;;;14.43;;
826;SDS011;395;48.132;11.608;2022-12-18T16:10:55;27.67;;;15.13;;
826;SDS011;395;48.132;11.608;2022-12-18T16:13:21;31.55;;;15.73;;
826;SDS011;395;48.132;11.608;2022-12-18T16:15:47;25.57;;;13.63;;
826;SDS011;395;48.132;11.608;2022-12-18T16:18:13;25.50;;;14.60;;
826;SDS011;395;48.132;11.608;2022-12-18T16:20:39;28.00;;;15.10;;
826;SDS011;395;48.132;11.608;2022-12-18T16:23:05;30.63;;;15.50;;
826;SDS011;395;48.132;11.608;2022-12-18T16:25:31;35.83;;;16.00;;
826;SDS011;395;48.132;11.608;2022-12-18T16:27:57;30.35;;;17.67;;
826;SDS011;395;48.132;11.608;2022-12-18T16:30:27;26.07;;;15.77;;
826;SDS011;395;48.132;11.608;2022-12-18T16:32:55;27.55;;;15.27;;
826;SDS011;395;48.132;11.608;2022-12-18T16:35:22;29.20;;;15.25;;
826;SDS011;395;48.132;11.608;2022-12-18T16:37:50;27.60;;;15.60;;
826;SDS011;395;48.132;11.608;2022-12-18T16:40:16;29.33;;;15.80;;
826;SDS011;395;48.132;11.608;2022-12-18T16:42:44;29.75;;;15.18;;
826;SDS011;395;48.132;11.608;2022-12-18T16:45:16;28.85;;;15.48;;
826;SDS011;395;48.132;11.608;2022-12-18T16:47:43;27.65;;;15.35;;
826;SDS011;395;48.132;11.608;2022-12-18T16:50:09;28.15;;;16.88;;
826;SDS011;395;48.132;11.608;2022-12-18T16:52:35;27.00;;;15.95;;
826;SDS011;395;48.132;11.608;2022-12-18T16:55:02;32.80;;;16.38;;
826;SDS011;395;48.132;11.608;2022-12-18T16:57:28;28.75;;;16.67;;
826;SDS011;395;48.132;11.608;2022-12-18T16:59:54;27.33;;;15.73;;
826;SDS011;395;48.132;11.608;2022-12-18T17:02:20;26.80;;;16.00;;
826;SDS011;395;48.132;11.608;2022-12-18T17:04:56;31.25;;;16.15;;
826;SDS011;395;48.132;11.608;2022-12-18T17:07:22;31.75;;;15.82;;
826;SDS011;395;48.132;11.608;2022-12-18T17:09:49;31.98;;;16.75;;
826;SDS011;395;48.132;11.608;2022-12-18T17:12:15;24.50;;;14.87;;
826;SDS011;395;48.132;11.608;2022-12-18T17:14:41;26.40;;;15.40;;